Capivari, Brazil
Current Conditions -  °F | °C
As of 3:00 AM on Saturday 20 Dec 2014 (Local Time) from SBKP Reporting Station
Thunderstorm Thunderstorm  
Wind Chill: 70°   Ceiling: 9000
Heat Index: 70°   Visibility: 6mi
Dew Point: 66°   Wind: 9mph
Humidity: 88%   Direction: 50°NE
Pressure: NA   Gusts: NA
Location:  23°S, 47.51°W
Report Text: SBKP 200500Z 05008KT 9999 -TSRA SCT040 FEW056CB BKN090 21/19 Q1013
Loading
Personal Weather Stations






























Interactive Weather Map New forecast layout! Learn more

10-Day Weather Forecast

Advertisements
Track Severe Weather on mobile